createdAt,value
2022-11-05T00:00:38.887Z,98479.34
2022-11-05T00:03:24.921Z,98479.44
2022-11-05T00:06:12.320Z,98476.78
2022-11-05T00:08:59.864Z,98469.16
2022-11-05T00:11:45.607Z,98470.38
2022-11-05T00:14:32.603Z,98463.38
2022-11-05T00:16:59.747Z,98458.00
2022-11-05T00:19:27.056Z,98449.62
2022-11-05T00:22:12.632Z,98461.25
2022-11-05T00:24:58.407Z,98457.47
2022-11-05T00:27:25.365Z,98456.31
2022-11-05T00:29:52.641Z,98454.09
2022-11-05T00:32:20.070Z,98475.06
2022-11-05T00:34:47.076Z,98477.91
2022-11-05T00:37:14.322Z,98477.34
2022-11-05T00:39:41.311Z,98477.41
2022-11-05T00:42:26.614Z,98489.03
2022-11-05T00:45:03.022Z,98488.03
2022-11-05T00:47:50.418Z,98472.59
2022-11-05T00:50:19.127Z,98471.59
2022-11-05T00:52:56.635Z,98463.03
2022-11-05T00:55:38.215Z,98470.16
2022-11-05T00:58:11.643Z,98469.56
2022-11-05T01:01:00.102Z,98473.03
2022-11-05T01:03:32.251Z,98475.50
2022-11-05T01:06:07.206Z,98482.28
2022-11-05T01:08:34.203Z,98474.81
2022-11-05T01:11:33.279Z,98480.91
2022-11-05T01:14:06.402Z,98473.62
2022-11-05T01:16:34.230Z,98483.56
2022-11-05T01:19:03.071Z,98488.88
2022-11-05T01:21:30.053Z,98477.63
2022-11-05T01:23:57.449Z,98478.69
2022-11-05T01:26:24.645Z,98480.25
2022-11-05T01:28:53.051Z,98469.91
2022-11-05T01:31:21.289Z,98466.94
2022-11-05T01:33:48.726Z,98461.59
2022-11-05T01:36:15.940Z,98468.72
2022-11-05T01:38:43.252Z,98475.72
2022-11-05T01:41:10.472Z,98479.03
2022-11-05T01:43:48.900Z,98486.00
2022-11-05T01:46:23.705Z,98495.50
2022-11-05T01:48:54.424Z,98499.87
2022-11-05T01:51:27.426Z,98494.63
2022-11-05T01:54:02.881Z,98501.16
2022-11-05T01:56:34.662Z,98507.59
2022-11-05T01:59:23.897Z,98509.47
2022-11-05T02:01:52.080Z,98493.44
2022-11-05T02:04:30.656Z,98489.97
2022-11-05T02:06:59.379Z,98493.53
2022-11-05T02:09:58.477Z,98491.84
2022-11-05T02:12:26.888Z,98502.50
2022-11-05T02:14:53.881Z,98501.25
2022-11-05T02:17:29.748Z,98498.63
2022-11-05T02:20:19.223Z,98493.25
2022-11-05T02:23:04.696Z,98495.97
2022-11-05T02:26:03.817Z,98500.22
2022-11-05T02:29:18.574Z,98499.37
2022-11-05T02:32:06.885Z,98500.91
2022-11-05T02:35:21.591Z,98508.44
2022-11-05T02:38:33.226Z,98500.97
2022-11-05T02:41:11.993Z,98508.00
2022-11-05T02:44:15.820Z,98508.31
2022-11-05T02:46:45.494Z,98509.00
2022-11-05T02:49:21.621Z,98499.75
2022-11-05T02:51:56.895Z,98509.34
2022-11-05T02:54:33.144Z,98505.16
2022-11-05T02:57:03.065Z,98508.63
2022-11-05T02:59:30.837Z,98519.06
2022-11-05T03:01:59.902Z,98503.31
2022-11-05T03:04:27.789Z,98506.78
2022-11-05T03:07:15.595Z,98508.63
2022-11-05T03:10:20.447Z,98499.25
2022-11-05T03:13:29.183Z,98509.84
2022-11-05T03:16:06.136Z,98502.88
2022-11-05T03:18:33.429Z,98510.06
2022-11-05T03:21:08.713Z,98507.44
2022-11-05T03:24:00.388Z,98520.41
2022-11-05T03:26:31.880Z,98518.62
2022-11-05T03:29:03.182Z,98532.47
2022-11-05T03:31:35.191Z,98528.44
2022-11-05T03:34:04.404Z,98525.66
2022-11-05T03:36:37.828Z,98525.06
2022-11-05T03:39:08.924Z,98528.44
2022-11-05T03:41:43.192Z,98520.50
2022-11-05T03:44:15.495Z,98527.75
2022-11-05T03:46:48.014Z,98526.84
2022-11-05T03:49:25.838Z,98538.94
2022-11-05T03:52:04.269Z,98540.56
2022-11-05T03:54:32.713Z,98530.91
2022-11-05T03:57:14.777Z,98540.41
2022-11-05T03:59:49.253Z,98544.87
2022-11-05T04:02:19.491Z,98541.50
2022-11-05T04:04:47.138Z,98534.47
2022-11-05T04:07:32.772Z,98535.41
2022-11-05T04:10:18.814Z,98529.13
2022-11-05T04:13:04.705Z,98528.44
2022-11-05T04:15:51.957Z,98531.22
2022-11-05T04:18:19.016Z,98521.44
2022-11-05T04:21:04.902Z,98524.13
2022-11-05T04:23:50.727Z,98524.13
2022-11-05T04:26:23.260Z,98529.06
2022-11-05T04:29:10.256Z,98522.13
2022-11-05T04:31:38.569Z,98532.16
2022-11-05T04:34:05.854Z,98529.47
2022-11-05T04:36:32.982Z,98516.94
2022-11-05T04:39:00.336Z,98510.16
2022-11-05T04:41:27.364Z,98513.56
2022-11-05T04:43:54.800Z,98522.28
2022-11-05T04:46:22.071Z,98518.47
2022-11-05T04:48:49.082Z,98529.63
2022-11-05T04:51:16.140Z,98523.69
2022-11-05T04:53:43.456Z,98531.69
2022-11-05T04:56:21.949Z,98536.31
2022-11-05T04:58:49.751Z,98526.28
2022-11-05T05:01:22.459Z,98527.88
2022-11-05T05:03:51.859Z,98530.75
2022-11-05T05:06:19.599Z,98522.28
2022-11-05T05:08:48.614Z,98522.19
2022-11-05T05:11:18.360Z,98527.38
2022-11-05T05:13:45.769Z,98519.50
2022-11-05T05:16:22.064Z,98518.62
2022-11-05T05:18:50.197Z,98514.41
2022-11-05T05:21:37.782Z,98516.09
2022-11-05T05:24:13.770Z,98528.72
2022-11-05T05:26:44.188Z,98535.59
2022-11-05T05:29:12.571Z,98535.75
2022-11-05T05:31:40.109Z,98533.31
2022-11-05T05:34:10.307Z,98536.09
2022-11-05T05:36:37.697Z,98530.50
2022-11-05T05:39:08.435Z,98536.59
2022-11-05T05:41:35.547Z,98538.22
2022-11-05T05:44:05.518Z,98543.31
2022-11-05T05:46:32.636Z,98545.06
2022-11-05T05:48:59.824Z,98558.44
2022-11-05T05:51:27.255Z,98555.81
2022-11-05T05:53:55.254Z,98570.63
2022-11-05T05:56:22.385Z,98577.25
2022-11-05T05:58:49.671Z,98579.03
2022-11-05T06:01:19.628Z,98585.13
2022-11-05T06:03:48.612Z,98604.22
2022-11-05T06:06:19.953Z,98602.97
2022-11-05T06:08:48.320Z,98603.12
2022-11-05T06:11:15.437Z,98606.84
2022-11-05T06:13:42.529Z,98609.38
2022-11-05T06:16:10.563Z,98611.16
2022-11-05T06:18:38.096Z,98618.22
2022-11-05T06:21:10.728Z,98626.44
2022-11-05T06:23:39.699Z,98631.44
2022-11-05T06:26:14.896Z,98641.19
2022-11-05T06:28:42.637Z,98633.38
2022-11-05T06:31:10.696Z,98640.00
2022-11-05T06:33:37.781Z,98637.31
2022-11-05T06:36:06.220Z,98642.75
2022-11-05T06:38:35.552Z,98645.03
2022-11-05T06:41:09.851Z,98652.84
2022-11-05T06:43:38.535Z,98652.06
2022-11-05T06:46:06.348Z,98656.81
2022-11-05T06:48:33.701Z,98657.16
2022-11-05T06:51:01.046Z,98674.63
2022-11-05T06:53:28.093Z,98668.03
2022-11-05T06:55:55.192Z,98670.59
2022-11-05T06:58:22.474Z,98674.28
2022-11-05T07:00:50.056Z,98672.78
2022-11-05T07:03:17.245Z,98678.06
2022-11-05T07:05:47.948Z,98684.63
2022-11-05T07:08:15.610Z,98679.94
2022-11-05T07:10:42.686Z,98685.81
2022-11-05T07:13:10.291Z,98689.87
2022-11-05T07:15:38.112Z,98686.56
2022-11-05T07:18:07.531Z,98703.56
2022-11-05T07:20:35.712Z,98697.94
2022-11-05T07:23:10.062Z,98696.78
2022-11-05T07:25:38.066Z,98704.66
2022-11-05T07:28:06.101Z,98710.09
2022-11-05T07:30:34.697Z,98703.81
2022-11-05T07:33:02.566Z,98699.84
2022-11-05T07:35:29.824Z,98712.13
2022-11-05T07:37:56.872Z,98689.84
2022-11-05T07:40:26.393Z,98704.78
2022-11-05T07:42:58.735Z,98694.91
2022-11-05T07:45:27.863Z,98705.22
2022-11-05T07:48:00.636Z,98700.72
2022-11-05T07:50:31.315Z,98712.59
2022-11-05T07:53:07.952Z,98707.41
2022-11-05T07:55:35.691Z,98713.78
2022-11-05T07:58:03.471Z,98706.06
2022-11-05T08:00:32.443Z,98697.22
2022-11-05T08:03:06.796Z,98695.75
2022-11-05T08:05:37.231Z,98697.47
2022-11-05T08:08:05.921Z,98683.44
2022-11-05T08:10:34.243Z,98693.38
2022-11-05T08:13:01.440Z,98690.13
2022-11-05T08:15:29.075Z,98688.28
2022-11-05T08:18:04.774Z,98684.97
2022-11-05T08:20:33.227Z,98694.38
2022-11-05T08:23:00.779Z,98689.28
2022-11-05T08:25:28.163Z,98687.31
2022-11-05T08:28:00.366Z,98667.09
2022-11-05T08:30:28.941Z,98672.94
2022-11-05T08:32:58.786Z,98684.16
2022-11-05T08:35:27.396Z,98686.03
2022-11-05T08:37:58.207Z,98688.25
2022-11-05T08:40:26.454Z,98686.34
2022-11-05T08:42:56.971Z,98685.94
2022-11-05T08:45:24.924Z,98679.78
2022-11-05T08:47:59.410Z,98687.06
2022-11-05T08:50:26.602Z,98686.41
2022-11-05T08:52:53.908Z,98684.13
2022-11-05T08:55:21.049Z,98690.00
2022-11-05T08:57:48.064Z,98695.63
2022-11-05T09:00:15.837Z,98705.81
2022-11-05T09:02:42.909Z,98704.78
2022-11-05T09:05:09.946Z,98699.63
2022-11-05T09:07:37.306Z,98714.28
2022-11-05T09:10:04.704Z,98715.13
2022-11-05T09:12:31.766Z,98703.25
2022-11-05T09:14:59.047Z,98697.50
2022-11-05T09:17:26.147Z,98711.53
2022-11-05T09:19:53.161Z,98715.22
2022-11-05T09:22:20.578Z,98713.53
2022-11-05T09:24:47.559Z,98729.16
2022-11-05T09:27:14.686Z,98720.97
2022-11-05T09:29:42.427Z,98730.00
2022-11-05T09:32:09.643Z,98731.81
2022-11-05T09:34:36.645Z,98730.78
2022-11-05T09:37:04.239Z,98726.63
2022-11-05T09:39:31.223Z,98747.91
2022-11-05T09:42:04.679Z,98715.41
2022-11-05T09:44:44.948Z,98717.28
2022-11-05T09:47:19.291Z,98724.84
2022-11-05T09:49:50.371Z,98720.78
2022-11-05T09:52:23.859Z,98717.31
2022-11-05T09:54:54.262Z,98724.16
2022-11-05T09:57:51.636Z,98722.13
2022-11-05T10:00:19.292Z,98720.91
2022-11-05T10:03:10.092Z,98725.53
2022-11-05T10:05:39.209Z,98718.88
2022-11-05T10:08:18.386Z,98708.38
2022-11-05T10:10:54.878Z,98704.38
2022-11-05T10:13:26.690Z,98712.00
2022-11-05T10:16:05.524Z,98711.91
2022-11-05T10:18:36.426Z,98715.41
2022-11-05T10:21:03.758Z,98718.03
2022-11-05T10:23:30.768Z,98724.66
2022-11-05T10:26:10.466Z,98718.72
2022-11-05T10:28:37.500Z,98716.78
2022-11-05T10:31:12.410Z,98716.03
2022-11-05T10:33:42.545Z,98724.00
2022-11-05T10:36:15.619Z,98724.69
2022-11-05T10:38:42.667Z,98720.44
2022-11-05T10:41:28.844Z,98724.69
2022-11-05T10:44:05.843Z,98724.44
2022-11-05T10:46:49.413Z,98723.72
2022-11-05T10:49:43.066Z,98730.16
2022-11-05T10:52:20.816Z,98735.72
2022-11-05T10:54:49.863Z,98732.88
2022-11-05T10:57:27.890Z,98745.09
2022-11-05T11:00:21.660Z,98756.59
2022-11-05T11:02:56.384Z,98746.62
2022-11-05T11:05:38.226Z,98751.59
2022-11-05T11:08:11.476Z,98759.72
2022-11-05T11:11:06.443Z,98746.41
2022-11-05T11:14:19.167Z,98736.34
2022-11-05T11:16:48.693Z,98731.81
2022-11-05T11:19:31.162Z,98734.44
2022-11-05T11:22:04.233Z,98729.69
2022-11-05T11:24:41.890Z,98731.84
2022-11-05T11:27:13.564Z,98740.94
2022-11-05T11:29:49.134Z,98751.06
2022-11-05T11:32:19.760Z,98742.56
2022-11-05T11:34:52.815Z,98745.09
2022-11-05T11:37:30.032Z,98733.03
2022-11-05T11:40:02.737Z,98741.84
2022-11-05T11:42:36.516Z,98735.69
2022-11-05T11:45:19.543Z,98731.34
2022-11-05T11:47:49.824Z,98732.19
2022-11-05T11:50:53.881Z,98745.97
2022-11-05T11:53:20.787Z,98744.28
2022-11-05T11:55:59.996Z,98738.59
2022-11-05T11:58:57.574Z,98745.28
2022-11-05T12:01:59.752Z,98739.78
2022-11-05T12:04:45.453Z,98741.03
2022-11-05T12:07:34.414Z,98741.13
2022-11-05T12:10:28.042Z,98736.91
2022-11-05T12:12:57.750Z,98741.88
2022-11-05T12:15:38.813Z,98743.69
2022-11-05T12:18:13.707Z,98741.66
2022-11-05T12:20:41.084Z,98756.56
2022-11-05T12:23:23.338Z,98772.13
2022-11-05T12:26:03.868Z,98771.81
2022-11-05T12:32:19.254Z,98773.28
2022-11-05T12:34:52.346Z,98768.13
2022-11-05T12:37:27.179Z,98769.50
2022-11-05T12:40:25.648Z,98773.31
2022-11-05T12:43:34.747Z,98763.16
2022-11-05T12:46:20.014Z,98765.69
2022-11-05T12:49:10.373Z,98768.97
2022-11-05T12:52:00.603Z,98782.41
2022-11-05T12:54:52.206Z,98788.00
2022-11-05T12:57:21.182Z,98790.63
2022-11-05T12:59:57.194Z,98796.78
2022-11-05T13:02:33.419Z,98798.25
2022-11-05T13:05:13.732Z,98790.00
2022-11-05T13:07:53.557Z,98792.13
2022-11-05T13:10:29.936Z,98793.09
2022-11-05T13:13:18.648Z,98791.41
2022-11-05T13:16:30.079Z,98800.59
2022-11-05T13:19:03.272Z,98796.56
2022-11-05T13:21:31.524Z,98806.41
2022-11-05T13:24:26.308Z,98805.25
2022-11-05T13:27:03.754Z,98812.13
2022-11-05T13:29:43.872Z,98806.53
2022-11-05T13:32:36.178Z,98811.56
2022-11-05T13:35:14.054Z,98817.88
2022-11-05T13:38:05.085Z,98814.38
2022-11-05T13:40:56.103Z,98822.97
2022-11-05T13:44:10.890Z,98812.31
2022-11-05T13:47:16.567Z,98807.84
2022-11-05T13:50:08.945Z,98812.94
2022-11-05T13:52:49.177Z,98811.31
2022-11-05T13:55:44.443Z,98805.72
2022-11-05T13:58:27.855Z,98809.63
2022-11-05T14:01:21.848Z,98803.66
2022-11-05T14:03:51.790Z,98803.34
2022-11-05T14:06:28.555Z,98812.03
2022-11-05T14:09:02.644Z,98814.34
2022-11-05T14:11:35.003Z,98818.16
2022-11-05T14:14:05.680Z,98812.66
2022-11-05T14:16:52.102Z,98814.22
2022-11-05T14:19:19.309Z,98812.66
2022-11-05T14:21:54.628Z,98817.56
2022-11-05T14:24:21.997Z,98820.16
2022-11-05T14:27:01.313Z,98824.59
2022-11-05T14:29:49.028Z,98822.91
2022-11-05T14:32:21.911Z,98829.47
2022-11-05T14:34:55.207Z,98826.22
2022-11-05T14:37:25.433Z,98834.91
2022-11-05T14:39:54.629Z,98834.06
2022-11-05T14:42:31.346Z,98840.72
2022-11-05T14:45:14.155Z,98839.34
2022-11-05T14:47:50.387Z,98848.41
2022-11-05T14:50:39.018Z,98850.31
2022-11-05T14:53:25.212Z,98851.72
2022-11-05T14:56:19.259Z,98851.28
2022-11-05T14:58:46.725Z,98855.16
2022-11-05T15:01:34.013Z,98859.41
2022-11-05T15:04:03.279Z,98860.53
2022-11-05T15:06:37.117Z,98857.44
2022-11-05T15:09:13.522Z,98855.63
2022-11-05T15:12:02.692Z,98859.88
2022-11-05T15:14:53.740Z,98858.28
2022-11-05T15:17:40.849Z,98870.72
2022-11-05T15:20:19.243Z,98878.28
2022-11-05T15:22:52.589Z,98876.38
2022-11-05T15:25:42.839Z,98875.63
2022-11-05T15:28:36.228Z,98875.41
2022-11-05T15:31:41.170Z,98878.72
2022-11-05T15:34:25.475Z,98875.22
2022-11-05T15:36:57.090Z,98878.25
2022-11-05T15:39:39.868Z,98883.44
2022-11-05T15:42:22.399Z,98880.03
2022-11-05T15:44:52.500Z,98891.62
2022-11-05T15:47:30.129Z,98890.97
2022-11-05T15:50:03.899Z,98889.66
2022-11-05T15:52:36.432Z,98892.22
2022-11-05T15:55:19.922Z,98892.03
2022-11-05T15:57:56.011Z,98895.03
2022-11-05T16:00:35.378Z,98893.41
2022-11-05T16:03:07.901Z,98889.69
2022-11-05T16:05:41.964Z,98890.13
2022-11-05T16:08:17.285Z,98891.62
2022-11-05T16:10:48.813Z,98894.63
2022-11-05T16:13:30.673Z,98901.13
2022-11-05T16:16:01.194Z,98907.19
2022-11-05T16:18:38.628Z,98901.38
2022-11-05T16:21:13.756Z,98909.44
2022-11-05T16:23:49.908Z,98909.38
2022-11-05T16:29:35.498Z,98921.22
2022-11-05T16:32:36.925Z,98922.78
2022-11-05T16:35:06.579Z,98921.66
2022-11-05T16:37:41.701Z,98917.88
2022-11-05T16:40:16.377Z,98924.06
2022-11-05T16:42:43.961Z,98933.84
2022-11-05T16:45:13.984Z,98946.06
2022-11-05T16:47:42.051Z,98936.16
2022-11-05T16:50:26.456Z,98947.53
2022-11-05T16:52:53.915Z,98947.69
2022-11-05T16:55:21.231Z,98944.16
2022-11-05T16:57:52.284Z,98955.09
2022-11-05T17:00:20.859Z,98960.78
2022-11-05T17:02:48.370Z,98955.44
2022-11-05T17:05:21.509Z,98952.13
2022-11-05T17:07:48.840Z,98965.22
2022-11-05T17:10:16.247Z,98964.44
2022-11-05T17:12:43.978Z,98972.16
2022-11-05T17:15:26.990Z,98968.34
2022-11-05T17:17:54.763Z,98970.03
2022-11-05T17:20:41.985Z,98972.00
2022-11-05T17:23:11.580Z,98977.19
2022-11-05T17:25:40.936Z,98977.09
2022-11-05T17:28:09.447Z,98969.78
2022-11-05T17:30:40.388Z,98977.69
2022-11-05T17:33:12.594Z,98971.72
2022-11-05T17:35:40.478Z,98980.78
2022-11-05T17:38:08.689Z,98982.66
2022-11-05T17:40:39.811Z,98980.97
2022-11-05T17:43:07.585Z,98987.22
2022-11-05T17:45:40.380Z,98997.44
2022-11-05T17:48:09.309Z,98990.53
2022-11-05T17:50:43.575Z,98991.66
2022-11-05T17:53:15.528Z,98991.50
2022-11-05T17:55:44.283Z,98993.66
2022-11-05T17:58:11.947Z,98995.34
2022-11-05T18:00:40.407Z,99000.63
2022-11-05T18:03:07.925Z,98999.00
2022-11-05T18:05:35.081Z,98996.84
2022-11-05T18:08:02.562Z,99001.75
2022-11-05T18:10:30.339Z,99003.72
2022-11-05T18:12:58.427Z,99005.50
2022-11-05T18:15:25.445Z,99014.72
2022-11-05T18:17:52.784Z,99012.84
2022-11-05T18:20:19.945Z,99013.41
2022-11-05T18:22:51.948Z,99016.25
2022-11-05T18:25:19.310Z,99026.78
2022-11-05T18:27:46.476Z,99033.31
2022-11-05T18:30:15.557Z,99034.16
2022-11-05T18:32:44.660Z,99037.88
2022-11-05T18:35:13.407Z,99048.06
2022-11-05T18:37:40.795Z,99048.94
2022-11-05T18:40:08.761Z,99049.94
2022-11-05T18:42:36.122Z,99045.53
2022-11-05T18:45:04.770Z,99049.84
2022-11-05T18:47:33.594Z,99051.56
2022-11-05T18:50:01.457Z,99058.84
2022-11-05T18:52:31.545Z,99066.13
2022-11-05T18:54:59.623Z,99056.37
2022-11-05T18:57:27.647Z,99054.28
2022-11-05T18:59:54.739Z,99053.69
2022-11-05T19:02:22.214Z,99059.69
2022-11-05T19:05:14.031Z,99061.78
2022-11-05T19:07:40.113Z,99061.03
2022-11-05T19:10:07.838Z,99064.56
2022-11-05T19:12:34.953Z,99076.75
2022-11-05T19:15:03.104Z,99072.41
2022-11-05T19:17:32.680Z,99072.47
2022-11-05T19:20:00.247Z,99078.59
2022-11-05T19:22:27.822Z,99080.47
2022-11-05T19:24:54.948Z,99080.47
2022-11-05T19:27:22.017Z,99085.56
2022-11-05T19:29:49.476Z,99087.03
2022-11-05T19:32:16.515Z,99096.00
2022-11-05T19:34:43.854Z,99088.06
2022-11-05T19:37:12.353Z,99096.69
2022-11-05T19:39:40.541Z,99088.66
2022-11-05T19:42:07.521Z,99094.84
2022-11-05T19:44:34.897Z,99110.03
2022-11-05T19:47:01.943Z,99107.94
2022-11-05T19:49:28.977Z,99103.69
2022-11-05T19:51:56.472Z,99104.44
2022-11-05T19:54:23.598Z,99111.50
2022-11-05T19:56:51.947Z,99114.97
2022-11-05T19:59:19.356Z,99124.81
2022-11-05T20:01:46.500Z,99130.03
2022-11-05T20:04:14.034Z,99133.50
2022-11-05T20:06:41.334Z,99137.13
2022-11-05T20:09:27.505Z,99138.97
2022-11-05T20:11:56.645Z,99148.28
2022-11-05T20:14:25.357Z,99146.50
2022-11-05T20:16:52.839Z,99150.03
2022-11-05T20:19:21.842Z,99148.28
2022-11-05T20:21:48.964Z,99153.16
2022-11-05T20:24:24.240Z,99156.88
2022-11-05T20:26:54.366Z,99161.53
2022-11-05T20:29:21.984Z,99165.69
2022-11-05T20:31:50.044Z,99166.78
2022-11-05T20:34:17.465Z,99169.41
2022-11-05T20:36:44.453Z,99173.84
2022-11-05T20:39:12.143Z,99175.63
2022-11-05T20:41:39.493Z,99180.78
2022-11-05T20:44:06.501Z,99178.25
2022-11-05T20:46:33.554Z,99184.50
2022-11-05T20:49:00.819Z,99177.31
2022-11-05T20:51:27.847Z,99183.66
2022-11-05T20:54:00.140Z,99180.78
2022-11-05T20:56:31.167Z,99184.50
2022-11-05T20:58:59.816Z,99180.09
2022-11-05T21:01:32.829Z,99188.22
2022-11-05T21:04:01.017Z,99188.62
2022-11-05T21:06:28.035Z,99188.94
2022-11-05T21:08:55.083Z,99188.09
2022-11-05T21:11:22.487Z,99194.09
2022-11-05T21:13:50.155Z,99189.06
2022-11-05T21:16:19.035Z,99191.47
2022-11-05T21:18:47.349Z,99196.69
2022-11-05T21:21:19.980Z,99195.75
2022-11-05T21:23:47.705Z,99194.91
2022-11-05T21:26:16.711Z,99202.94
2022-11-05T21:28:43.952Z,99203.94
2022-11-05T21:31:11.353Z,99201.31
2022-11-05T21:33:39.442Z,99204.88
2022-11-05T21:36:11.587Z,99203.88
2022-11-05T21:38:39.971Z,99203.88
2022-11-05T21:41:07.962Z,99202.84
2022-11-05T21:43:35.737Z,99199.47
2022-11-05T21:46:04.602Z,99206.56
2022-11-05T21:48:32.243Z,99210.13
2022-11-05T21:51:18.226Z,99211.62
2022-11-05T21:54:04.032Z,99215.41
2022-11-05T21:56:50.294Z,99204.88
2022-11-05T21:59:39.252Z,99210.44
2022-11-05T22:02:07.688Z,99210.56
2022-11-05T22:04:37.513Z,99210.28
2022-11-05T22:07:05.914Z,99199.59
2022-11-05T22:09:33.054Z,99199.59
2022-11-05T22:12:01.468Z,99204.31
2022-11-05T22:14:28.684Z,99206.00
2022-11-05T22:16:59.423Z,99209.34
2022-11-05T22:19:27.163Z,99200.84
2022-11-05T22:21:54.285Z,99209.59
2022-11-05T22:24:21.374Z,99214.00
2022-11-05T22:26:49.204Z,99218.41
2022-11-05T22:29:16.727Z,99215.00
2022-11-05T22:31:44.029Z,99211.28
2022-11-05T22:34:11.642Z,99212.81
2022-11-05T22:36:39.010Z,99211.28
2022-11-05T22:39:06.918Z,99221.19
2022-11-05T22:41:34.367Z,99218.09
2022-11-05T22:44:03.268Z,99212.28
2022-11-05T22:46:31.038Z,99216.53
2022-11-05T22:48:59.852Z,99214.75
2022-11-05T22:51:30.577Z,99214.91
2022-11-05T22:53:59.100Z,99212.97
2022-11-05T22:56:29.244Z,99214.69
2022-11-05T22:58:58.420Z,99211.22
2022-11-05T23:01:26.206Z,99211.13
2022-11-05T23:03:55.362Z,99221.38
2022-11-05T23:06:43.254Z,99219.19
2022-11-05T23:09:34.170Z,99221.66
2022-11-05T23:12:02.601Z,99220.16
2022-11-05T23:14:30.006Z,99220.25
2022-11-05T23:17:15.707Z,99217.63
2022-11-05T23:20:01.837Z,99222.94
2022-11-05T23:22:49.694Z,99228.16
2022-11-05T23:25:19.883Z,99226.50
2022-11-05T23:27:49.712Z,99229.66
2022-11-05T23:30:22.462Z,99230.78
2022-11-05T23:32:50.220Z,99237.59
2022-11-05T23:35:38.189Z,99236.84
2022-11-05T23:38:23.980Z,99237.97
2022-11-05T23:41:10.097Z,99237.75
2022-11-05T23:43:55.894Z,99234.34
2022-11-05T23:46:41.790Z,99243.16
2022-11-05T23:49:08.994Z,99241.31
2022-11-05T23:51:36.326Z,99239.47
2022-11-05T23:54:03.407Z,99240.66
2022-11-05T23:56:31.581Z,99234.41
2022-11-05T23:58:58.962Z,99243.00
